createdAt,value
2022-12-16T00:03:22.890Z,-0.48
2022-12-16T00:13:28.366Z,-0.53
2022-12-16T00:23:33.757Z,-0.51
2022-12-16T00:33:38.034Z,-0.59
2022-12-16T00:43:41.795Z,-0.69
2022-12-16T00:53:45.666Z,-0.77
2022-12-16T01:03:49.899Z,-0.80
2022-12-16T01:13:55.453Z,-0.82
2022-12-16T01:23:59.833Z,-0.94
2022-12-16T01:34:03.806Z,-1.10
2022-12-16T01:44:16.728Z,-1.11
2022-12-16T01:54:31.907Z,-1.15
2022-12-16T02:04:35.683Z,-1.18
2022-12-16T02:15:05.441Z,-1.17
2022-12-16T02:25:37.130Z,-1.22
2022-12-16T02:36:11.594Z,-1.25
2022-12-16T02:46:17.143Z,-1.20
2022-12-16T02:56:35.936Z,-1.10
2022-12-16T03:06:42.970Z,-1.00
2022-12-16T03:16:49.935Z,-0.88
2022-12-16T03:27:21.086Z,-0.73
2022-12-16T03:37:29.546Z,-0.70
2022-12-16T03:47:33.328Z,-0.66
2022-12-16T03:57:37.635Z,-0.60
2022-12-16T04:07:42.191Z,-0.60
2022-12-16T04:18:04.898Z,-0.57
2022-12-16T04:28:08.969Z,-0.48
2022-12-16T04:38:31.665Z,-0.29
2022-12-16T04:48:54.166Z,0.02
2022-12-16T04:59:17.169Z,0.11
2022-12-16T05:09:39.454Z,0.14
2022-12-16T05:20:02.358Z,0.26
2022-12-16T05:30:30.464Z,0.20
2022-12-16T05:40:55.855Z,0.25
2022-12-16T05:51:18.639Z,0.33
2022-12-16T06:01:41.530Z,0.24
2022-12-16T06:12:11.503Z,0.16
2022-12-16T06:22:34.625Z,0.25
2022-12-16T06:32:57.211Z,0.29
2022-12-16T06:43:19.775Z,0.24
2022-12-16T06:53:42.614Z,0.14
2022-12-16T07:04:05.535Z,-0.04
2022-12-16T07:14:28.309Z,-0.11
2022-12-16T07:24:51.107Z,-0.25
2022-12-16T07:35:13.906Z,-0.29
2022-12-16T07:45:43.323Z,-0.31
2022-12-16T07:56:07.897Z,-0.24
2022-12-16T08:06:33.081Z,-0.22
2022-12-16T08:16:59.314Z,-0.18
2022-12-16T08:27:23.265Z,-0.08
2022-12-16T08:37:47.301Z,0.18
2022-12-16T08:48:10.705Z,0.37
2022-12-16T08:58:33.407Z,0.55
2022-12-16T09:08:56.216Z,0.62
2022-12-16T09:19:18.916Z,0.69
2022-12-16T09:29:44.921Z,0.90
2022-12-16T09:40:07.777Z,1.19
2022-12-16T09:50:44.381Z,1.52
2022-12-16T10:01:08.471Z,1.90
2022-12-16T10:12:09.475Z,2.12
2022-12-16T10:22:47.023Z,2.49
2022-12-16T10:33:10.579Z,2.77
2022-12-16T10:43:38.606Z,2.81
2022-12-16T10:54:03.839Z,2.78
2022-12-16T11:04:56.385Z,2.76
2022-12-16T11:15:39.910Z,2.87
2022-12-16T11:26:02.065Z,2.97
2022-12-16T11:36:33.588Z,2.99
2022-12-16T11:46:56.519Z,2.99
2022-12-16T11:57:21.605Z,2.90
2022-12-16T12:07:55.587Z,2.80
2022-12-16T12:18:30.503Z,2.83
2022-12-16T12:28:53.251Z,2.86
2022-12-16T12:39:39.866Z,2.82
2022-12-16T12:50:16.602Z,2.81
2022-12-16T13:00:42.271Z,2.85
2022-12-16T13:11:18.698Z,2.79
2022-12-16T13:21:57.600Z,2.78
2022-12-16T13:32:23.019Z,2.65
2022-12-16T13:43:09.509Z,2.48
2022-12-16T13:53:35.320Z,2.14
2022-12-16T14:04:06.748Z,1.75
2022-12-16T14:14:46.705Z,1.58
2022-12-16T14:25:10.714Z,1.43
2022-12-16T14:35:45.413Z,1.34
2022-12-16T14:46:10.049Z,1.20
2022-12-16T14:56:38.625Z,1.22
2022-12-16T15:07:06.215Z,1.20
2022-12-16T15:18:01.903Z,1.00
2022-12-16T15:28:24.740Z,1.11
2022-12-16T15:38:51.448Z,1.07
2022-12-16T15:49:14.450Z,1.08
2022-12-16T15:59:53.410Z,1.08
2022-12-16T16:10:30.429Z,0.95
2022-12-16T16:20:52.927Z,0.91
2022-12-16T16:31:15.621Z,0.88
2022-12-16T16:41:38.979Z,0.74
2022-12-16T16:52:02.456Z,0.60
2022-12-16T17:02:40.910Z,0.53
2022-12-16T17:13:05.283Z,0.54
2022-12-16T17:23:28.625Z,0.48
2022-12-16T17:33:51.152Z,0.59
2022-12-16T17:44:16.011Z,0.60
2022-12-16T17:54:39.760Z,0.44
2022-12-16T18:05:03.047Z,0.38
2022-12-16T18:15:26.283Z,0.32
2022-12-16T18:26:00.118Z,0.26
2022-12-16T18:36:25.265Z,0.12
2022-12-16T18:46:48.356Z,0.13
2022-12-16T18:57:12.593Z,-0.09
2022-12-16T19:07:36.363Z,-0.29
2022-12-16T19:18:00.176Z,-0.33
2022-12-16T19:28:24.141Z,-0.39
2022-12-16T19:38:47.792Z,-0.38
2022-12-16T19:49:13.882Z,-0.41
2022-12-16T19:59:40.159Z,-0.43
2022-12-16T20:10:03.980Z,-0.42
2022-12-16T20:20:28.318Z,-0.49
2022-12-16T20:30:52.362Z,-0.55
2022-12-16T20:41:21.420Z,-0.55
2022-12-16T20:51:45.991Z,-0.61
2022-12-16T21:02:29.081Z,-0.71
2022-12-16T21:12:53.730Z,-0.68
2022-12-16T21:23:24.924Z,-0.80
2022-12-16T21:33:49.702Z,-1.00
2022-12-16T21:44:13.041Z,-1.08
2022-12-16T21:54:36.781Z,-0.90
2022-12-16T22:04:59.712Z,-0.87
2022-12-16T22:15:22.921Z,-0.85
2022-12-16T22:25:45.632Z,-0.86
2022-12-16T22:36:08.473Z,-0.85
2022-12-16T22:46:32.331Z,-0.88
2022-12-16T22:56:56.340Z,-0.85
2022-12-16T23:07:19.391Z,-0.86
2022-12-16T23:17:42.608Z,-0.84
2022-12-16T23:28:05.630Z,-0.77
2022-12-16T23:38:29.774Z,-0.74
2022-12-16T23:48:52.877Z,-0.90
2022-12-16T23:59:17.298Z,-0.87
